JP7FSO Minamiyanome JP current weather conditions

sailwx.info

Wind from 123 at 0 knots

Air temperature 32.8° C
Dewpoint 23.4° C

Last reported at 2019-Aug-18 09:02 UTC.
Time now 2019-Aug-18 09:32 UTC

Location: N 37°48' E 140°27'.
View on Google Maps.

See reports from other nearby stations

  
Tides and Currents Weather Stations Pressure Air Temp Water Temp Dewpoint Dewpoint Depression Visibility Wind Speed Wind Dir Waves Ship Positions
date/time (UTC)wind fromknots sea level pressurealtimeterstation pressurevisibilityair tempwater tempwave heightnotes
2019-Aug-18 09:02 123 0 32.8
2019-Aug-18 08:46 124 0 34.4
2019-Aug-18 08:31 127 0 36.1
2019-Aug-18 08:17 127 37.2
2019-Aug-18 08:02 127 37.2
2019-Aug-18 07:46 127 37.8
2019-Aug-18 07:31 127 38.3
2019-Aug-18 07:16 127 38.3
2019-Aug-18 07:01 127 38.3
2019-Aug-18 06:46 127 39.4
2019-Aug-18 06:31 127 39.4
2019-Aug-18 06:16 127 38.9
2019-Aug-18 06:00 127 38.9
2019-Aug-18 05:46 127 38.3
2019-Aug-18 05:31 127 37.8
2019-Aug-18 05:16 127 37.8
2019-Aug-18 05:01 129 37.8
2019-Aug-18 04:45 132 37.2
2019-Aug-18 04:30 133 37.2
2019-Aug-18 04:15 133 37.2
2019-Aug-18 04:00 133 36.7
2019-Aug-18 03:45 133 0 36.7
2019-Aug-18 03:30 139 0 36.1
2019-Aug-18 03:15 146 0 35.6
2019-Aug-18 03:00 174 0 34.4
2019-Aug-18 02:45 177 34.4
2019-Aug-18 02:33 178 33.9
2019-Aug-18 02:19 179 33.3
2019-Aug-18 02:02 183 32.8
2019-Aug-18 01:46 184 32.2
2019-Aug-18 01:31 198 31.7
2019-Aug-18 01:16 226 31.1
2019-Aug-18 01:01 236 30.6
2019-Aug-18 00:46 250 29.4
2019-Aug-18 00:30 250 28.9
2019-Aug-18 00:16 250 28.3
2019-Aug-18 00:01 250 27.8
2019-Aug-17 23:45 250 27.2
2019-Aug-17 23:31 250 26.7
2019-Aug-17 23:15 250 26.1
2019-Aug-17 23:00 250 25.6
2019-Aug-17 22:45 250 25.0
2019-Aug-17 22:30 250 25.0
2019-Aug-17 22:15 250 24.4
2019-Aug-17 22:00 250 24.4
2019-Aug-17 21:46 250 24.4
2019-Aug-17 21:32 250 24.4
2019-Aug-17 21:17 250 24.4
2019-Aug-17 21:03 250 24.4
2019-Aug-17 20:47 250 23.9
2019-Aug-17 20:31 250 23.9
2019-Aug-17 20:16 250 23.9
2019-Aug-17 20:01 250 24.4
2019-Aug-17 19:46 250 24.4
2019-Aug-17 19:32 250 24.4
2019-Aug-17 19:17 250 24.4
2019-Aug-17 19:01 250 23.9
2019-Aug-17 18:46 250 23.9
2019-Aug-17 18:33 250 23.9
2019-Aug-17 18:18 250 23.9
2019-Aug-17 18:02 250 23.9
2019-Aug-17 17:48 250 23.9
2019-Aug-17 17:31 250 24.4
2019-Aug-17 17:17 250 24.4
2019-Aug-17 17:01 250 24.4
2019-Aug-17 16:46 250 24.4
2019-Aug-17 16:31 250 24.4
2019-Aug-17 16:16 250 25.0
2019-Aug-17 16:01 250 25.0
2019-Aug-17 15:46 250 25.0
2019-Aug-17 15:31 250 25.0
2019-Aug-17 15:16 250 25.0
2019-Aug-17 15:01 250 25.0
2019-Aug-17 14:45 250 25.0
2019-Aug-17 14:30 250 25.0
2019-Aug-17 14:15 250 25.6
2019-Aug-17 14:00 250 25.6
2019-Aug-17 13:45 250 25.6
2019-Aug-17 13:31 250 25.6
2019-Aug-17 13:16 250 26.1
2019-Aug-17 13:01 250 26.1
2019-Aug-17 12:45 250 26.1
2019-Aug-17 12:31 250 26.7
2019-Aug-17 12:15 250 27.2
2019-Aug-17 12:00 250 27.2
2019-Aug-17 11:45 250 27.8
2019-Aug-17 11:30 250 28.3
2019-Aug-17 11:15 250 28.3
2019-Aug-17 11:00 250 28.9
2019-Aug-17 10:45 250 28.9
2019-Aug-17 10:30 250 28.9
2019-Aug-17 10:15 250 29.4
2019-Aug-17 10:00 250 30.0
2019-Aug-17 09:45 250 30.6
2019-Aug-17 09:31 250 31.1
2019-Aug-17 09:15 250 31.7
2019-Aug-17 09:00 251 32.8
2019-Aug-17 08:45 251 32.8
2019-Aug-17 08:30 250 33.3
2019-Aug-17 08:15 251 33.3
2019-Aug-17 08:00 250 1 33.3
2019-Aug-17 07:45 272 2 33.3
2019-Aug-17 07:30 258 1 33.9
2019-Aug-17 07:15 281 1 34.4
2019-Aug-17 07:00 274 2 34.4
2019-Aug-17 06:45 273 2 34.4
2019-Aug-17 06:30 252 0 35.0
2019-Aug-17 06:15 248 0 35.0
2019-Aug-17 06:00 268 1 35.0
2019-Aug-17 05:45 263 0 35.0
2019-Aug-17 05:32 275 1 35.0
2019-Aug-17 05:16 250 2 34.4
2019-Aug-17 05:01 250 1 34.4
2019-Aug-17 04:46 252 3 33.9
2019-Aug-17 04:31 262 1 33.3
2019-Aug-17 04:16 261 2 32.8
2019-Aug-17 04:01 271 0 31.7
2019-Aug-17 03:46 264 0 31.7
2019-Aug-17 03:30 256 2 31.7
2019-Aug-17 03:15 271 2 32.2
2019-Aug-17 03:00 267 2 33.3
2019-Aug-17 02:46 265 33.3
2019-Aug-17 02:31 283 32.8
2019-Aug-17 02:15 272 0 32.8
2019-Aug-17 02:01 256 0 32.2
2019-Aug-17 01:46 271 0 31.1
2019-Aug-17 01:30 314 0 30.0
2019-Aug-17 01:15 325 0 29.4
2019-Aug-17 01:00 325 28.9
2019-Aug-17 00:45 325 28.9
2019-Aug-17 00:30 325 28.3
2019-Aug-17 00:15 325 28.3
2019-Aug-17 00:00 325 27.8
2019-Aug-16 23:46 325 27.8
2019-Aug-16 23:32 325 27.2
2019-Aug-16 23:16 325 26.7
2019-Aug-16 23:01 325 26.7
2019-Aug-16 22:46 325 25.6
2019-Aug-16 22:31 325 25.0
2019-Aug-16 22:16 325 24.4
2019-Aug-16 22:01 325 24.4
2019-Aug-16 21:46 325 24.4
2019-Aug-16 21:31 325 23.9
2019-Aug-16 21:16 325 23.9
2019-Aug-16 21:01 325 23.9
2019-Aug-16 20:46 325 23.9
2019-Aug-16 20:31 325 23.9
2019-Aug-16 20:16 325 23.9
2019-Aug-16 20:01 325 23.9
2019-Aug-16 19:46 325 23.9
2019-Aug-16 19:30 325 24.4
2019-Aug-16 19:15 325 24.4
2019-Aug-16 19:01 325 24.4
2019-Aug-16 18:45 325 24.4
2019-Aug-16 18:31 325 24.4
2019-Aug-16 18:15 325 25.0
2019-Aug-16 18:01 325 25.0
2019-Aug-16 17:45 325 25.0
2019-Aug-16 17:30 325 25.0
2019-Aug-16 17:15 325 25.6
2019-Aug-16 17:00 325 25.6
2019-Aug-16 16:45 325 25.6
2019-Aug-16 16:31 325 25.6
2019-Aug-16 16:15 325 25.6
2019-Aug-16 16:00 325 25.6
2019-Aug-16 15:45 325 25.6
2019-Aug-16 15:30 325 26.1
2019-Aug-16 15:15 325 26.1
2019-Aug-16 15:00 325 26.1
2019-Aug-16 14:45 325 26.1
2019-Aug-16 14:30 325 26.1
2019-Aug-16 14:15 325 26.1
2019-Aug-16 14:00 325 26.1
2019-Aug-16 13:45 325 26.1
2019-Aug-16 13:30 325 26.1
2019-Aug-16 13:15 325 26.1
2019-Aug-16 13:00 325 26.1
2019-Aug-16 12:45 325 26.1
2019-Aug-16 12:30 325 26.1
2019-Aug-16 12:15 325 26.7
2019-Aug-16 12:00 325 26.7
2019-Aug-16 11:45 325 26.7
2019-Aug-16 11:30 325 26.7
2019-Aug-16 11:15 325 26.7
2019-Aug-16 11:00 325 26.7
2019-Aug-16 10:45 325 27.2
2019-Aug-16 10:30 325 27.2
2019-Aug-16 10:15 325 27.2
2019-Aug-16 10:00 325 27.2
2019-Aug-16 09:45 325 27.8
2019-Aug-16 09:30 325 27.8
2019-Aug-16 09:16 325 27.8
2019-Aug-16 09:01 325 28.3